Aviation Digital Data Service (ADDS)

Output produced by METARs form (1029 UTC 25 March 2019)
found at http://aviationweather.gov/metar/data/
 
KRDG 250954Z 29005KT 10SM BKN065 BKN100 10/02 RMK AO2 SLPNO T01000017 $
KRDG 250530Z 2506/2606 VRB03KT P6SM BKN080 
     FM251100 34004KT P6SM BKN080 
     FM251400 01008KT P6SM BKN060 
     TEMPO 2519/2523 5SM -SHRA BR OVC035 
     FM260400 01010G18KT P6SM SKC
       
KABE 250951Z 24004KT 10SM SCT110 09/01 A3001 RMK AO2 SLP162 T00940006
KABE 250530Z 2506/2606 VRB03KT P6SM BKN080 
     FM251000 35006KT P6SM BKN080 
     TEMPO 2520/2523 -SHRA OVC040 
     FM260300 01008G16KT P6SM SKC
       
KPNE 250954Z 00000KT 10SM OVC090 11/02 A3002 RMK AO2 SLP164 T01060017 $
KPNE 250530Z 2506/2606 27004KT P6SM BKN100 
     FM251200 35004KT P6SM BKN080 
     FM251400 02008KT P6SM BKN060 
     FM252000 01006KT P6SM -SHRA OVC040 
     TEMPO 2521/2601 5SM -SHRA BR OVC025 
     FM260100 01008KT P6SM BKN060 
     FM260500 01010G18KT P6SM SKC